Boylston, New York
Current Conditions -  °F | °C
As of 2:56 AM on Tuesday 27 Jan 2015 (Local Time) from KART Reporting Station
Clear Clear  
Wind Chill: -12°   Ceiling: Unl
Heat Index:   Visibility: 10mi
Dew Point: -6°   Wind: 13mph
Humidity: 61%   Direction: 40°NE
Pressure: 30"   Gusts: NA
Location:  43.6481°N, 75.9881°W
Report Text: KART 270756Z AUTO 04011KT 10SM CLR M15/M21 A3000 RMK AO2 SLP170 T11501211
Loading
Personal Weather Stations






























Interactive Weather Map New forecast layout! Learn more

10-Day Weather Forecast

Advertisements
Track Severe Weather on mobile